FYLZ/LUD METAR and TAF weather

Enter ICAO airport designator
Station Type Date Time Source
FYLZ METAR 2020/08/07 12:00 UTC NOAA

FYLZ 071200Z AUTO 05018KT //// // ////// 30/M13 Q1015


Station Type Date Time Source
FYLZ Decoded METAR 2020/08/07 12:00 UTC NOAA

Luderitz / Diaz Point, Namibia (FYLZ) 26-41S 015-15E
Aug 07, 2020 - 08:00 AM EDT / 2020.08.07 1200 UTC
Wind: from the NE (050 degrees) at 21 MPH (18 KT):0
Temperature: 86 F (30 C)
Dew Point: 8 F (-13 C)
Relative Humidity: 5%
Pressure (altimeter): 29.97 in. Hg (1015 hPa)
ob: FYLZ 071200Z AUTO 05018KT //// // ////// 30/M13 Q1015
cycle: 12

Station Type Date Time Source
FYLZ TAF 2014/11/15 15:19 UTC NOAA

TAF FYLZ 151400Z 1515/1524 18015G28KT CAVOK
BECMG 1518/1520 16020KT

Example: see airport list